Time;durP1;ratioP1;P1;durP2;ratioP2;P2;SDS_P1;SDS_P2;PMS_P1;PMS_P2;Temp;Humidity;BMP_temperature;BMP_pressure;BME280_temperature;BME280_humidity;BME280_pressure;Samples;Min_cycle;Max_cycle;Signal;HPM_P1;HPM_P2
2020/12/25 00:01:07;;;;;;;25.03;12.93;;;;;;;8.85;67.50;94322.34;5013935;28;20244;-70
2020/12/25 00:03:33;;;;;;;23.00;12.83;;;;;;;8.71;67.98;94338.00;5013711;28;20176;-70
2020/12/25 00:05:58;;;;;;;21.70;11.87;;;;;;;8.79;67.30;94307.00;5014070;28;20588;-69
2020/12/25 00:08:24;;;;;;;23.97;13.03;;;;;;;8.74;67.59;94292.81;5013756;28;20172;-69
2020/12/25 00:10:53;;;;;;;24.63;12.53;;;;;;;8.62;68.30;94314.22;5013833;28;20656;-68
2020/12/25 00:13:18;;;;;;;29.80;13.53;;;;;;;8.78;67.31;94292.91;5013592;28;20184;-69
2020/12/25 00:15:45;;;;;;;26.47;13.07;;;;;;;8.98;66.34;94299.06;5012454;28;20638;-69
2020/12/25 00:18:11;;;;;;;26.63;12.43;;;;;;;9.03;66.10;94304.06;5012406;28;20204;-69
2020/12/25 00:20:36;;;;;;;24.07;12.63;;;;;;;8.90;67.12;94318.63;5013614;28;21024;-72
2020/12/25 00:23:02;;;;;;;26.60;13.87;;;;;;;8.62;68.36;94322.22;5013314;28;20177;-71
2020/12/25 00:25:27;;;;;;;22.97;12.03;;;;;;;8.45;67.86;94317.25;5013521;28;20188;-71
2020/12/25 00:27:53;;;;;;;24.23;13.27;;;;;;;8.70;67.08;94307.97;5013329;28;20220;-71
2020/12/25 00:30:18;;;;;;;28.20;13.10;;;;;;;8.47;68.40;94337.09;5013201;28;20255;-69
2020/12/25 00:32:44;;;;;;;25.63;12.87;;;;;;;8.42;68.17;94328.59;5013386;28;20227;-71
2020/12/25 00:35:10;;;;;;;26.83;13.30;;;;;;;8.10;69.34;94322.47;5013018;28;20201;-70
2020/12/25 00:37:35;;;;;;;20.93;11.97;;;;;;;8.28;68.70;94334.31;5013317;28;20187;-70
2020/12/25 00:40:01;;;;;;;24.60;12.10;;;;;;;8.16;69.65;94321.88;5013076;28;20188;-70
2020/12/25 00:42:26;;;;;;;25.47;13.70;;;;;;;8.32;68.38;94332.50;5013297;28;20200;-69
2020/12/25 00:44:52;;;;;;;30.50;13.40;;;;;;;8.14;69.55;94333.97;5012841;28;20188;-69
2020/12/25 00:47:17;;;;;;;26.60;14.43;;;;;;;8.23;68.94;94314.06;5013200;28;20173;-69
2020/12/25 00:49:43;;;;;;;24.67;13.50;;;;;;;8.03;69.30;94324.97;5013011;28;20259;-69
2020/12/25 00:52:08;;;;;;;26.43;14.37;;;;;;;8.28;68.52;94326.31;5012844;28;20179;-69
2020/12/25 00:54:34;;;;;;;28.33;13.87;;;;;;;8.23;68.76;94327.34;5012930;28;20262;-70
2020/12/25 00:56:59;;;;;;;23.27;12.57;;;;;;;8.52;67.96;94333.38;5012789;28;20550;-69
2020/12/25 00:59:25;;;;;;;31.43;15.43;;;;;;;8.11;68.73;94340.72;5010725;28;20275;-69
2020/12/25 01:01:51;;;;;;;24.03;13.13;;;;;;;8.21;69.14;94336.78;5012550;28;20201;-69
2020/12/25 01:04:16;;;;;;;24.73;12.83;;;;;;;8.55;67.93;94327.38;5013083;28;20196;-69
2020/12/25 01:06:42;;;;;;;24.37;12.97;;;;;;;8.73;67.04;94312.56;5012844;28;20595;-69
2020/12/25 01:09:08;;;;;;;25.83;14.03;;;;;;;8.37;68.08;94334.19;5012854;28;20209;-69
2020/12/25 01:11:33;;;;;;;20.63;11.47;;;;;;;8.25;68.75;94328.88;5012460;28;20189;-69
2020/12/25 01:13:59;;;;;;;26.53;13.40;;;;;;;8.57;67.81;94324.38;5012716;28;20243;-71
2020/12/25 01:16:24;;;;;;;27.20;12.90;;;;;;;8.27;68.92;94324.00;5012547;28;20205;-68
2020/12/25 01:18:50;;;;;;;28.00;12.77;;;;;;;8.58;67.77;94307.28;5012279;28;20173;-69
2020/12/25 01:21:16;;;;;;;23.93;13.13;;;;;;;8.68;67.24;94322.72;5012606;28;20196;-70
2020/12/25 01:23:41;;;;;;;24.53;11.73;;;;;;;8.56;67.61;94312.19;5012217;28;20278;-71
2020/12/25 01:26:08;;;;;;;29.13;12.40;;;;;;;8.66;67.04;94301.78;5012303;28;20951;-70
2020/12/25 01:28:34;;;;;;;23.40;11.53;;;;;;;8.78;66.45;94298.22;5012048;28;20173;-69
2020/12/25 01:30:59;;;;;;;26.60;12.50;;;;;;;8.71;67.84;94301.50;5011057;28;20629;-70
2020/12/25 01:33:27;;;;;;;25.90;11.83;;;;;;;8.51;68.30;94291.91;5011927;28;20181;-70
2020/12/25 01:35:53;;;;;;;23.93;12.27;;;;;;;8.56;67.45;94293.56;5012461;28;20951;-70
2020/12/25 01:38:18;;;;;;;24.70;11.83;;;;;;;8.22;68.66;94287.81;5012107;28;20188;-70
2020/12/25 01:40:44;;;;;;;21.40;11.63;;;;;;;8.19;69.27;94288.47;5012243;28;20219;-69
2020/12/25 01:43:09;;;;;;;23.57;10.80;;;;;;;8.22;69.00;94298.44;5012154;28;20171;-70
2020/12/25 01:45:35;;;;;;;25.33;12.63;;;;;;;8.08;69.11;94288.25;5010113;28;20247;-70
2020/12/25 01:48:00;;;;;;;21.47;12.03;;;;;;;8.39;67.93;94289.38;5011870;28;20176;-70
2020/12/25 01:50:27;;;;;;;28.40;12.97;;;;;;;8.16;69.13;94289.94;5010678;28;20212;-70
2020/12/25 01:52:54;;;;;;;20.67;11.00;;;;;;;8.44;68.43;94289.09;5012213;28;20193;-71
2020/12/25 01:55:20;;;;;;;23.57;11.83;;;;;;;8.34;68.25;94297.56;5010587;28;20631;-71
2020/12/25 01:57:45;;;;;;;22.37;11.90;;;;;;;8.52;67.70;94284.72;5010836;28;21179;-70
2020/12/25 02:00:11;;;;;;;23.03;11.77;;;;;;;8.51;68.03;94285.84;5011568;28;20698;-71
2020/12/25 02:02:36;;;;;;;20.87;12.03;;;;;;;8.52;67.46;94282.81;5011818;28;20165;-70
2020/12/25 02:05:02;;;;;;;20.50;10.77;;;;;;;8.38;68.24;94285.16;5012013;28;20188;-70
2020/12/25 02:07:27;;;;;;;26.00;12.30;;;;;;;8.46;67.93;94270.91;5010478;28;20201;-70
2020/12/25 02:09:53;;;;;;;23.83;11.40;;;;;;;8.52;67.86;94276.72;5011905;28;20609;-70
2020/12/25 02:12:19;;;;;;;22.43;12.33;;;;;;;8.20;68.96;94288.16;5011314;28;20173;-70
2020/12/25 02:14:44;;;;;;;22.60;11.13;;;;;;;8.40;68.05;94258.97;5011678;28;20291;-70
2020/12/25 02:17:10;;;;;;;24.97;11.30;;;;;;;8.19;68.59;94286.63;5011568;28;20196;-70
2020/12/25 02:19:38;;;;;;;21.70;11.07;;;;;;;8.33;68.24;94280.84;5011491;28;20204;-70
2020/12/25 02:22:04;;;;;;;23.80;10.80;;;;;;;8.09;68.97;94286.34;5011544;28;20184;-70
2020/12/25 02:24:30;;;;;;;23.40;11.87;;;;;;;7.94;69.93;94271.94;5010578;28;20583;-70
2020/12/25 02:26:55;;;;;;;18.50;10.87;;;;;;;7.78;69.81;94258.63;5011339;28;20367;-69
2020/12/25 02:29:21;;;;;;;19.27;11.93;;;;;;;7.91;70.11;94281.38;5011751;28;20181;-70
2020/12/25 02:31:46;;;;;;;27.07;12.10;;;;;;;7.98;69.10;94288.75;5011555;28;20239;-70
2020/12/25 02:34:12;;;;;;;25.00;10.87;;;;;;;7.78;70.03;94279.88;5011004;28;20259;-70
2020/12/25 02:36:37;;;;;;;20.53;11.43;;;;;;;7.91;69.62;94281.38;5011617;28;20177;-70
2020/12/25 02:39:04;;;;;;;21.57;12.00;;;;;;;7.99;69.67;94282.31;5011297;28;20735;-70
2020/12/25 02:41:29;;;;;;;23.20;12.10;;;;;;;7.76;69.82;94292.00;5010489;28;20634;-70
2020/12/25 02:43:55;;;;;;;23.37;11.50;;;;;;;7.47;71.03;94271.88;5011516;28;20685;-70
2020/12/25 02:46:21;;;;;;;23.20;12.60;;;;;;;7.69;70.59;94274.75;5011409;28;20200;-70
2020/12/25 02:48:47;;;;;;;25.77;12.00;;;;;;;7.96;69.19;94264.38;5011123;28;20169;-70
2020/12/25 02:51:12;;;;;;;27.63;13.30;;;;;;;7.80;69.09;94256.41;5011630;28;20197;-70
2020/12/25 02:53:38;;;;;;;25.30;13.03;;;;;;;7.80;69.46;94258.28;5009897;28;20996;-70
2020/12/25 02:56:03;;;;;;;30.23;14.70;;;;;;;7.36;70.62;94260.97;5011308;28;20262;-70
2020/12/25 02:58:29;;;;;;;27.33;13.40;;;;;;;7.75;69.27;94251.34;5011387;28;20251;-70
2020/12/25 03:00:54;;;;;;;30.73;13.33;;;;;;;7.52;70.27;94250.34;5011197;28;20196;-70
2020/12/25 03:03:20;;;;;;;19.97;11.37;;;;;;;7.42;70.83;94243.69;5011256;28;20177;-70
2020/12/25 03:05:45;;;;;;;23.30;12.97;;;;;;;7.84;69.63;94245.84;5011488;28;20584;-70
2020/12/25 03:08:11;;;;;;;30.53;13.10;;;;;;;7.54;70.03;94254.25;5011216;28;20209;-70
2020/12/25 03:10:36;;;;;;;21.07;11.67;;;;;;;7.55;70.20;94226.56;5010993;28;20264;-70
2020/12/25 03:13:02;;;;;;;23.67;11.63;;;;;;;7.88;69.19;94231.53;5011264;28;20720;-71
2020/12/25 03:15:27;;;;;;;19.47;12.50;;;;;;;7.96;69.08;94227.16;5010983;28;20209;-70
2020/12/25 03:17:53;;;;;;;20.93;12.20;;;;;;;7.99;67.90;94242.44;5011090;28;20189;-70
2020/12/25 03:20:18;;;;;;;21.63;11.43;;;;;;;7.67;69.62;94239.75;5011084;28;20169;-70
2020/12/25 03:22:44;;;;;;;24.90;11.77;;;;;;;7.54;69.93;94248.16;5011753;28;20231;-70
2020/12/25 03:25:09;;;;;;;21.87;11.63;;;;;;;7.51;70.47;94230.22;5014856;28;20203;-71
2020/12/25 03:27:35;;;;;;;25.27;13.37;;;;;;;7.60;70.23;94236.94;5015447;28;20703;-70
2020/12/25 03:30:01;;;;;;;29.10;12.93;;;;;;;7.71;69.89;94231.13;5015023;28;20170;-70
2020/12/25 03:32:26;;;;;;;28.83;12.43;;;;;;;7.74;69.79;94228.53;5014516;28;20177;-70
2020/12/25 03:34:52;;;;;;;27.57;11.80;;;;;;;7.65;69.78;94233.25;5014415;28;20193;-71
2020/12/25 03:37:19;;;;;;;22.57;12.13;;;;;;;7.72;69.84;94224.69;5014078;28;20220;-70
2020/12/25 03:39:46;;;;;;;26.20;11.60;;;;;;;7.63;70.29;94236.25;5014626;28;20188;-71
2020/12/25 03:42:11;;;;;;;23.57;12.67;;;;;;;7.41;70.69;94228.84;5014162;28;20627;-70
2020/12/25 03:44:37;;;;;;;25.10;12.83;;;;;;;7.54;70.22;94208.31;5014259;28;20615;-70
2020/12/25 03:47:02;;;;;;;25.17;13.70;;;;;;;7.53;70.00;94231.44;5014313;28;20184;-70
2020/12/25 03:49:28;;;;;;;24.07;13.37;;;;;;;7.85;69.17;94236.75;5013979;28;20593;-71
2020/12/25 03:51:53;;;;;;;24.73;12.53;;;;;;;7.87;68.72;94213.28;5014046;28;20166;-70
2020/12/25 03:54:19;;;;;;;26.77;12.33;;;;;;;7.86;68.73;94211.75;5013990;28;20240;-71
2020/12/25 03:56:44;;;;;;;23.17;12.37;;;;;;;7.53;69.73;94202.22;5014078;28;20177;-70
2020/12/25 03:59:10;;;;;;;21.67;12.57;;;;;;;7.55;70.44;94212.50;5013760;28;20224;-71
2020/12/25 04:01:36;;;;;;;24.50;11.43;;;;;;;7.49;70.42;94216.53;5013905;28;20177;-69
2020/12/25 04:04:01;;;;;;;24.57;12.77;;;;;;;7.88;68.78;94209.50;5013561;28;20181;-70
2020/12/25 04:06:27;;;;;;;24.70;12.33;;;;;;;7.42;70.53;94215.22;5013703;28;20209;-70
2020/12/25 04:08:52;;;;;;;23.97;11.70;;;;;;;7.52;69.75;94208.66;5013809;28;20201;-70
2020/12/25 04:11:17;;;;;;;21.37;12.67;;;;;;;7.41;69.85;94202.31;5013463;28;20180;-69
2020/12/25 04:13:43;;;;;;;21.07;11.93;;;;;;;7.59;69.95;94221.34;5011675;28;20191;-70
2020/12/25 04:16:09;;;;;;;18.33;11.93;;;;;;;7.25;70.96;94214.78;5013546;28;20173;-70
2020/12/25 04:18:34;;;;;;;21.27;11.90;;;;;;;7.38;70.36;94210.94;5011922;28;20694;-70
2020/12/25 04:21:00;;;;;;;20.93;12.50;;;;;;;7.00;71.42;94222.81;5012365;28;20223;-70
2020/12/25 04:23:27;;;;;;;20.27;11.57;;;;;;;7.02;70.99;94198.63;5013470;28;20196;-71
2020/12/25 04:25:53;;;;;;;20.23;11.50;;;;;;;7.12;71.43;94227.31;5012087;28;20216;-70
2020/12/25 04:28:18;;;;;;;17.57;10.63;;;;;;;7.30;70.75;94238.44;5013407;28;20630;-69
2020/12/25 04:30:44;;;;;;;22.87;12.00;;;;;;;7.11;71.12;94237.16;5013264;28;20169;-71
2020/12/25 04:33:09;;;;;;;26.10;12.50;;;;;;;6.86;71.96;94225.88;5013419;28;20176;-70
2020/12/25 04:35:35;;;;;;;24.13;11.60;;;;;;;6.99;71.95;94234.56;5012154;28;20208;-71
2020/12/25 04:38:00;;;;;;;23.77;11.80;;;;;;;7.02;71.79;94230.47;5013109;28;20228;-72
2020/12/25 04:40:26;;;;;;;21.87;11.20;;;;;;;7.24;70.45;94229.94;5013394;28;20200;-70
2020/12/25 04:42:52;;;;;;;22.57;11.40;;;;;;;7.18;70.80;94241.13;5013057;28;20172;-71
2020/12/25 04:45:17;;;;;;;19.43;11.03;;;;;;;7.39;70.35;94231.84;4995806;28;20192;-71
2020/12/25 04:47:46;;;;;;;22.63;11.53;;;;;;;7.29;70.38;94248.25;5012859;28;20690;-70
2020/12/25 04:50:11;;;;;;;21.60;11.57;;;;;;;7.26;70.00;94233.00;5013119;28;20264;-70
2020/12/25 04:52:37;;;;;;;23.60;11.77;;;;;;;7.08;70.84;94245.81;5012857;28;20991;-70
2020/12/25 04:55:03;;;;;;;20.80;10.40;;;;;;;7.25;70.74;94246.63;5011720;28;20697;-71
2020/12/25 04:57:28;;;;;;;21.13;11.60;;;;;;;7.23;71.15;94243.53;5012531;28;20170;-69
2020/12/25 04:59:54;;;;;;;17.37;10.80;;;;;;;7.21;70.48;94227.19;5012886;28;20180;-70
2020/12/25 05:02:20;;;;;;;18.87;10.63;;;;;;;7.26;70.19;94230.34;5012865;28;20173;-71
2020/12/25 05:04:46;;;;;;;20.67;10.33;;;;;;;7.28;70.47;94241.41;5029281;28;20302;-70
2020/12/25 05:07:12;;;;;;;17.77;9.97;;;;;;;7.12;70.87;94228.09;5031383;28;20247;-70
2020/12/25 05:09:38;;;;;;;21.03;10.73;;;;;;;7.32;70.49;94239.63;5014375;28;20655;-69
2020/12/25 05:12:03;;;;;;;19.13;11.13;;;;;;;6.83;72.36;94233.72;5032243;28;20590;-73
2020/12/25 05:14:30;;;;;;;17.90;9.80;;;;;;;7.26;70.55;94248.94;5032074;28;20238;-72
2020/12/25 05:16:57;;;;;;;27.27;10.77;;;;;;;6.97;71.66;94250.06;5032187;28;20186;-70
2020/12/25 05:19:29;;;;;;;23.70;12.13;;;;;;;6.97;72.19;94252.72;5032057;28;20663;-72
2020/12/25 05:22:00;;;;;;;22.10;11.10;;;;;;;7.32;70.76;94252.13;5032203;28;20587;-70
2020/12/25 05:24:25;;;;;;;22.77;10.50;;;;;;;6.90;71.62;94247.19;5031893;28;20579;-70
2020/12/25 05:26:54;;;;;;;19.53;10.57;;;;;;;7.14;71.53;94238.38;5032015;28;20630;-69
2020/12/25 05:29:23;;;;;;;19.03;10.00;;;;;;;6.99;71.24;94247.06;5031933;28;20172;-72
2020/12/25 05:31:50;;;;;;;21.97;10.33;;;;;;;6.78;72.16;94231.31;5032179;28;20590;-69
2020/12/25 05:34:17;;;;;;;19.83;10.90;;;;;;;6.86;71.60;94236.50;5031740;28;20646;-70
2020/12/25 05:36:49;;;;;;;20.57;10.70;;;;;;;7.17;70.61;94235.03;5031989;28;20578;-70
2020/12/25 05:39:33;;;;;;;23.23;11.07;;;;;;;7.13;70.45;94234.19;5031871;28;20614;-69
2020/12/25 05:42:00;;;;;;;22.27;10.83;;;;;;;7.32;70.30;94226.34;5030897;28;20705;-70
2020/12/25 05:44:27;;;;;;;18.40;10.87;;;;;;;7.47;69.53;94224.84;5031696;28;20583;-69
2020/12/25 05:46:53;;;;;;;19.83;11.90;;;;;;;7.58;69.41;94231.19;5030268;28;20602;-69
2020/12/25 05:49:19;;;;;;;22.37;11.17;;;;;;;7.53;68.94;94225.34;5031708;28;20668;-69
2020/12/25 05:51:48;;;;;;;19.63;10.57;;;;;;;7.32;70.04;94249.47;5031591;28;20188;-70
2020/12/25 05:54:18;;;;;;;18.80;10.40;;;;;;;7.29;70.10;94242.19;5031602;28;20576;-69
2020/12/25 05:56:43;;;;;;;20.03;10.03;;;;;;;7.05;71.07;94254.44;5030334;28;20590;-69
2020/12/25 05:59:09;;;;;;;21.13;10.53;;;;;;;7.17;70.75;94245.66;5014028;28;20586;-70
2020/12/25 06:01:34;;;;;;;21.33;10.70;;;;;;;7.29;70.05;94253.56;5030273;28;20173;-71
2020/12/25 06:04:00;;;;;;;19.70;10.60;;;;;;;6.95;71.43;94249.59;5030313;28;20180;-70
2020/12/25 06:06:25;;;;;;;20.53;11.30;;;;;;;7.15;71.13;94259.28;5029931;28;20234;-70
2020/12/25 06:08:58;;;;;;;20.77;10.20;;;;;;;7.01;71.66;94260.75;5030444;28;20172;-70
2020/12/25 06:11:29;;;;;;;15.97;9.37;;;;;;;7.12;71.81;94269.78;5031327;28;20687;-69
2020/12/25 06:13:54;;;;;;;21.30;10.17;;;;;;;7.29;70.57;94255.44;5031477;28;20587;-70
2020/12/25 06:16:20;;;;;;;20.87;9.73;;;;;;;7.13;71.06;94258.84;5031259;28;20666;-71
2020/12/25 06:19:08;;;;;;;20.63;10.37;;;;;;;7.00;71.79;94251.25;5030184;28;20662;-71
2020/12/25 06:21:58;;;;;;;17.40;9.30;;;;;;;7.20;71.53;94274.19;5028776;28;20249;-70
2020/12/25 06:24:29;;;;;;;17.80;9.30;;;;;;;7.22;71.61;94266.66;4952418;28;20617;-72
2020/12/25 06:26:56;;;;;;;20.50;8.83;;;;;;;7.11;71.88;94270.91;4953925;28;20664;-70
2020/12/25 06:29:21;;;;;;;15.57;8.13;;;;;;;7.06;71.96;94293.16;4937874;28;20611;-69
2020/12/25 06:31:48;;;;;;;15.93;8.83;;;;;;;6.97;72.20;94300.50;4937792;28;20727;-69
2020/12/25 06:34:13;;;;;;;15.97;9.07;;;;;;;6.97;71.68;94289.88;4969968;28;20763;-69
2020/12/25 06:36:45;;;;;;;20.97;10.97;;;;;;;7.11;70.95;94300.88;4969843;28;20602;-71
2020/12/25 06:39:13;;;;;;;15.67;9.63;;;;;;;7.08;70.34;94290.94;4970074;28;20178;-72
2020/12/25 06:41:39;;;;;;;16.30;9.60;;;;;;;7.34;70.55;94293.16;4969696;28;20605;-71
2020/12/25 06:44:15;;;;;;;15.67;9.23;;;;;;;7.29;70.14;94295.28;4969806;28;20609;-71
2020/12/25 06:46:50;;;;;;;15.73;8.57;;;;;;;7.38;70.42;94272.03;4953729;28;20742;-71
2020/12/25 06:49:16;;;;;;;17.73;9.90;;;;;;;7.32;70.02;94297.28;4969937;28;20600;-72
2020/12/25 06:51:42;;;;;;;14.30;8.70;;;;;;;7.72;69.00;94285.81;4969576;28;20978;-72
2020/12/25 06:54:16;;;;;;;19.17;8.87;;;;;;;7.66;69.74;94290.59;4969784;28;20695;-71
2020/12/25 06:56:41;;;;;;;18.73;9.43;;;;;;;7.63;69.50;94294.72;4953839;28;20604;-71
2020/12/25 06:59:16;;;;;;;17.97;10.40;;;;;;;7.45;70.26;94292.69;4972956;28;20983;-70
2020/12/25 07:01:43;;;;;;;16.47;9.03;;;;;;;7.72;69.65;94269.84;5011766;28;20249;-71
2020/12/25 07:04:28;;;;;;;18.73;9.27;;;;;;;9.04;92.95;94296.88;5033357;28;20594;-73
2020/12/25 07:06:56;;;;;;;15.30;8.90;;;;;;;9.13;81.43;94274.22;5034639;28;20608;-73
2020/12/25 07:09:21;;;;;;;17.70;10.07;;;;;;;8.63;68.47;94277.75;5034378;28;20590;-69
2020/12/25 07:11:51;;;;;;;19.10;10.20;;;;;;;8.10;69.36;94275.38;5034223;28;20590;-72
2020/12/25 07:14:17;;;;;;;17.80;9.20;;;;;;;8.05;69.67;94265.00;5034246;28;20695;-72
2020/12/25 07:16:45;;;;;;;18.97;9.63;;;;;;;8.35;68.04;94281.25;5032662;28;20602;-70
2020/12/25 07:19:11;;;;;;;26.87;14.03;;;;;;;8.48;67.78;94274.78;5034191;28;20172;-70
2020/12/25 07:21:37;;;;;;;26.90;12.80;;;;;;;8.48;66.58;94274.00;5034042;28;20583;-72
2020/12/25 07:24:03;;;;;;;22.77;11.60;;;;;;;8.37;67.48;94273.75;5033087;28;20457;-70
2020/12/25 07:26:28;;;;;;;27.60;12.97;;;;;;;8.24;68.22;94264.28;5033741;28;21095;-72
2020/12/25 07:28:54;;;;;;;21.03;11.73;;;;;;;8.50;67.38;94266.44;5032491;28;20184;-72
2020/12/25 07:31:19;;;;;;;19.80;11.17;;;;;;;8.22;68.53;94279.81;5032961;28;20165;-72
2020/12/25 07:33:55;;;;;;;21.60;10.33;;;;;;;8.28;69.01;94270.47;5033401;28;20182;-72
2020/12/25 07:36:20;;;;;;;18.63;9.90;;;;;;;8.16;69.50;94274.00;5033864;28;20176;-71
2020/12/25 07:38:46;;;;;;;15.90;8.90;;;;;;;8.18;69.08;94290.38;5033721;28;20594;-74
2020/12/25 07:41:11;;;;;;;16.60;9.83;;;;;;;8.20;68.96;94290.81;5033991;28;20693;-69
2020/12/25 07:43:37;;;;;;;22.17;11.63;;;;;;;7.85;70.97;94298.66;5033525;28;20191;-71
2020/12/25 07:46:03;;;;;;;20.27;11.23;;;;;;;8.03;70.54;94301.78;5033744;28;20169;-70
2020/12/25 07:48:29;;;;;;;27.00;11.87;;;;;;;8.02;70.39;94289.59;5033444;28;20180;-70
2020/12/25 07:50:54;;;;;;;21.17;12.37;;;;;;;8.21;69.73;94295.00;5033769;28;21154;-71
2020/12/25 07:53:20;;;;;;;23.07;12.67;;;;;;;8.36;69.58;94295.38;5032206;28;20168;-68
2020/12/25 07:55:47;;;;;;;21.03;12.17;;;;;;;8.29;69.16;94308.47;5032472;28;20235;-72
2020/12/25 07:58:16;;;;;;;24.13;12.87;;;;;;;8.48;69.07;94287.31;5033339;28;20226;-71
2020/12/25 08:00:41;;;;;;;21.83;11.87;;;;;;;8.37;69.19;94280.97;5016394;28;20582;-71
2020/12/25 08:03:07;;;;;;;19.83;12.10;;;;;;;8.25;69.02;94307.59;5033408;28;21204;-72
2020/12/25 08:05:32;;;;;;;25.13;11.70;;;;;;;8.42;68.98;94302.00;5033200;28;20180;-72
2020/12/25 08:07:59;;;;;;;22.80;12.10;;;;;;;8.59;68.55;94287.56;5033203;28;20169;-71
2020/12/25 08:10:25;;;;;;;22.93;11.53;;;;;;;8.62;68.51;94294.81;5031981;28;20250;-70
2020/12/25 08:12:53;;;;;;;19.97;11.47;;;;;;;8.54;68.38;94309.09;5031833;28;21176;-71
2020/12/25 08:15:19;;;;;;;23.47;12.43;;;;;;;8.29;69.15;94305.81;5031798;28;20200;-71
2020/12/25 08:17:49;;;;;;;25.30;13.07;;;;;;;8.44;69.08;94313.81;5033196;28;20665;-72
2020/12/25 08:20:15;;;;;;;25.70;13.10;;;;;;;8.72;68.28;94289.75;5032908;28;20177;-72
2020/12/25 08:22:40;;;;;;;28.40;14.57;;;;;;;8.42;69.30;94313.41;5032994;28;21113;-73
2020/12/25 08:25:06;;;;;;;31.77;14.70;;;;;;;8.67;69.04;94299.88;5033031;28;20208;-72
2020/12/25 08:27:33;;;;;;;26.20;13.90;;;;;;;8.90;68.78;94290.13;5032817;28;20687;-72
2020/12/25 08:30:00;;;;;;;24.87;14.27;;;;;;;8.78;68.16;94306.22;5032721;28;20211;-70
2020/12/25 08:32:25;;;;;;;27.03;15.13;;;;;;;8.71;68.44;94296.19;5033056;28;20603;-73
2020/12/25 08:35:10;;;;;;;24.87;14.00;;;;;;;8.96;67.94;94293.28;5031550;28;20646;-72
2020/12/25 08:37:35;;;;;;;32.87;15.57;;;;;;;9.08;67.23;94281.72;5032677;28;20213;-72
2020/12/25 08:40:16;;;;;;;26.37;14.10;;;;;;;9.13;67.38;94303.53;5032407;28;20591;-71
2020/12/25 08:42:42;;;;;;;26.27;13.57;;;;;;;8.95;67.47;94297.06;5032492;28;20168;-72
2020/12/25 08:45:08;;;;;;;26.53;12.97;;;;;;;8.98;67.32;94273.19;5032335;28;20566;-72
2020/12/25 08:47:33;;;;;;;30.13;14.60;;;;;;;9.18;67.06;94289.94;5032484;28;20176;-72
2020/12/25 08:49:59;;;;;;;26.47;13.60;;;;;;;9.14;67.35;94289.09;5032193;28;20258;-72
2020/12/25 08:52:25;;;;;;;28.30;13.27;;;;;;;9.37;66.26;94299.06;5032537;28;20215;-71
2020/12/25 08:54:57;;;;;;;22.03;12.23;;;;;;;9.44;66.04;94293.88;5030926;28;20304;-71
2020/12/25 08:57:22;;;;;;;20.10;11.10;;;;;;;9.41;65.90;94299.91;5032313;28;20180;-72
2020/12/25 08:59:58;;;;;;;22.13;12.10;;;;;;;9.57;65.37;94289.94;5032330;28;20575;-71
2020/12/25 09:02:23;;;;;;;25.57;11.67;;;;;;;9.58;66.20;94280.03;5031156;28;20184;-72
2020/12/25 09:04:49;;;;;;;22.83;12.07;;;;;;;9.30;65.36;94281.03;5032169;28;20940;-72
2020/12/25 09:07:14;;;;;;;19.17;10.77;;;;;;;9.47;66.42;94253.19;5032113;28;20214;-72
2020/12/25 09:09:40;;;;;;;21.47;12.20;;;;;;;9.60;65.22;94257.25;5032062;28;20544;-71
2020/12/25 09:12:05;;;;;;;23.57;12.77;;;;;;;9.56;64.80;94213.00;5031962;28;20259;-71
2020/12/25 09:14:31;;;;;;;24.57;13.67;;;;;;;9.57;65.41;94243.84;5032047;28;20215;-72
2020/12/25 09:16:57;;;;;;;22.13;12.47;;;;;;;9.43;65.46;94247.03;5031833;28;20259;-69
2020/12/25 09:19:22;;;;;;;24.73;14.13;;;;;;;9.45;65.24;94252.78;5031874;28;20200;-71
2020/12/25 09:21:48;;;;;;;21.90;12.40;;;;;;;9.27;65.87;94260.44;5031253;28;20171;-71
2020/12/25 09:24:13;;;;;;;29.83;14.27;;;;;;;9.58;65.28;94240.81;5031697;28;20600;-72
2020/12/25 09:26:38;;;;;;;25.20;13.43;;;;;;;9.55;65.44;94252.22;5031873;28;20232;-73
2020/12/25 09:29:04;;;;;;;27.33;13.30;;;;;;;9.63;65.79;94218.44;5031514;28;20663;-73
2020/12/25 09:31:30;;;;;;;27.97;14.37;;;;;;;9.89;64.86;94210.53;5031612;28;20242;-72
2020/12/25 09:33:55;;;;;;;27.13;12.40;;;;;;;9.79;64.78;94238.53;5031336;28;20168;-73
2020/12/25 09:36:21;;;;;;;26.17;14.27;;;;;;;9.90;64.94;94200.63;5031330;28;20163;-72
2020/12/25 09:38:46;;;;;;;18.93;11.00;;;;;;;9.90;64.08;94224.63;5031616;28;20255;-72
2020/12/25 09:41:12;;;;;;;24.00;12.80;;;;;;;9.82;64.74;94197.09;5031661;28;20659;-72
2020/12/25 09:43:38;;;;;;;20.77;12.30;;;;;;;9.72;65.08;94235.75;5031119;28;20211;-72
2020/12/25 09:46:03;;;;;;;21.70;11.17;;;;;;;9.90;65.03;94224.63;5031334;28;20677;-72
2020/12/25 09:48:29;;;;;;;24.67;11.53;;;;;;;9.95;63.81;94177.09;5031593;28;20164;-72
2020/12/25 09:50:54;;;;;;;19.83;10.57;;;;;;;10.07;63.72;94221.47;5031150;28;20643;-72
2020/12/25 09:53:20;;;;;;;19.17;10.83;;;;;;;10.17;63.45;94201.44;5031357;28;20167;-73
2020/12/25 09:55:48;;;;;;;17.47;10.97;;;;;;;10.48;62.23;94187.78;5031107;28;20199;-73
2020/12/25 09:58:13;;;;;;;16.87;9.80;;;;;;;10.36;62.69;94192.56;5031452;28;20177;-72
2020/12/25 10:00:39;;;;;;;16.90;9.30;;;;;;;10.23;61.33;94200.00;5030988;28;20563;-71
2020/12/25 10:03:04;;;;;;;14.27;7.80;;;;;;;10.49;61.67;94170.63;5031697;28;20192;-71
2020/12/25 10:05:30;;;;;;;14.90;8.17;;;;;;;10.59;61.16;94191.38;5030714;28;20620;-71
2020/12/25 10:07:55;;;;;;;14.03;8.17;;;;;;;10.55;61.18;94181.75;5031107;28;20187;-73
2020/12/25 10:10:22;;;;;;;13.50;8.60;;;;;;;10.52;61.30;94187.84;5031155;28;20675;-72
2020/12/25 10:12:48;;;;;;;11.53;7.40;;;;;;;10.46;61.28;94192.72;5031052;28;20263;-73
2020/12/25 10:15:14;;;;;;;13.57;7.47;;;;;;;10.51;60.23;94154.28;5031102;28;20657;-73
2020/12/25 10:17:39;;;;;;;25.97;9.63;;;;;;;10.63;60.90;94159.38;5029479;28;20593;-72
2020/12/25 10:20:05;;;;;;;17.80;9.70;;;;;;;10.55;61.10;94147.88;5031057;28;21168;-71
2020/12/25 10:22:30;;;;;;;19.77;11.00;;;;;;;10.70;61.23;94161.38;5030911;28;20252;-71
2020/12/25 10:24:56;;;;;;;17.90;9.60;;;;;;;10.53;61.59;94157.34;5029571;28;20230;-71
2020/12/25 10:27:22;;;;;;;17.93;8.43;;;;;;;10.70;60.27;94151.47;5029327;28;20302;-72
2020/12/25 10:29:47;;;;;;;13.60;8.40;;;;;;;10.65;59.22;94138.44;5028523;28;20224;-70
2020/12/25 10:32:13;;;;;;;13.90;8.03;;;;;;;10.66;60.58;94137.28;5032070;28;20615;-71
2020/12/25 10:34:38;;;;;;;15.50;7.93;;;;;;;10.89;60.79;94125.72;5034924;28;20204;-71
2020/12/25 10:37:04;;;;;;;16.97;8.83;;;;;;;10.84;60.38;94142.88;5034881;28;20288;-72
2020/12/25 10:39:29;;;;;;;17.53;9.17;;;;;;;10.84;60.25;94108.16;5034598;28;20685;-70
2020/12/25 10:41:55;;;;;;;18.27;8.37;;;;;;;10.67;61.37;94136.19;5034967;28;20197;-71
2020/12/25 10:44:20;;;;;;;14.53;9.20;;;;;;;10.62;61.54;94138.41;5034535;28;20204;-71
2020/12/25 10:46:46;;;;;;;16.70;9.90;;;;;;;10.69;61.11;94125.91;5034433;28;20327;-70
2020/12/25 10:49:11;;;;;;;15.33;8.70;;;;;;;10.78;60.54;94126.41;5034793;28;20219;-71
2020/12/25 10:51:37;;;;;;;17.00;8.83;;;;;;;10.83;60.69;94128.75;5034713;28;20168;-72
2020/12/25 10:54:03;;;;;;;21.83;8.67;;;;;;;11.11;59.80;94095.44;5032653;28;20192;-72
2020/12/25 10:56:32;;;;;;;14.73;7.93;;;;;;;11.04;59.82;94106.06;5034341;28;20176;-71
2020/12/25 10:58:58;;;;;;;15.70;7.57;;;;;;;11.01;59.85;94117.47;5034277;28;20179;-69
2020/12/25 11:01:24;;;;;;;23.33;8.70;;;;;;;11.18;59.27;94103.53;5034516;28;20593;-70
2020/12/25 11:03:50;;;;;;;14.47;8.57;;;;;;;11.31;58.87;94118.16;5034557;28;20959;-69
2020/12/25 11:06:16;;;;;;;13.93;7.93;;;;;;;11.28;59.18;94110.88;5034345;28;21138;-71
2020/12/25 11:08:42;;;;;;;18.33;9.87;;;;;;;11.44;59.22;94101.84;5034246;28;20562;-72
2020/12/25 11:11:07;;;;;;;18.03;9.17;;;;;;;11.64;58.13;94100.50;5034363;28;20195;-71
2020/12/25 11:13:33;;;;;;;26.37;9.10;;;;;;;11.38;58.93;94094.16;5034481;28;20215;-72
2020/12/25 11:15:59;;;;;;;13.63;8.27;;;;;;;11.66;58.09;94082.16;5034174;28;20203;-72
2020/12/25 11:18:25;;;;;;;18.60;8.07;;;;;;;11.66;57.99;94090.94;5034428;28;20551;-71
2020/12/25 11:20:50;;;;;;;13.73;7.73;;;;;;;11.61;57.40;94063.78;5033983;28;20185;-71
2020/12/25 11:23:16;;;;;;;15.17;7.83;;;;;;;11.68;57.96;94074.56;5033371;28;20713;-71